createdAt,value
2017-05-28T00:00:34.844Z,1011.96
2017-05-28T00:01:36.299Z,1012.03
2017-05-28T00:02:37.731Z,1012.05
2017-05-28T00:03:39.178Z,1011.99
2017-05-28T00:04:40.645Z,1012.03
2017-05-28T00:05:42.061Z,1012.08
2017-05-28T00:06:43.490Z,1012.07
2017-05-28T00:07:44.907Z,1012.11
2017-05-28T00:08:46.331Z,1012.10
2017-05-28T00:09:47.770Z,1012.12
2017-05-28T00:10:49.192Z,1012.15
2017-05-28T00:11:50.630Z,1012.10
2017-05-28T00:12:52.054Z,1012.16
2017-05-28T00:13:53.490Z,1012.17
2017-05-28T00:14:54.915Z,1012.15
2017-05-28T00:15:56.381Z,1012.13
2017-05-28T00:16:57.827Z,1012.10
2017-05-28T00:17:59.276Z,1012.13
2017-05-28T00:19:00.686Z,1012.13
2017-05-28T00:20:02.107Z,1012.13
2017-05-28T00:21:03.542Z,1012.15
2017-05-28T00:22:04.970Z,1012.19
2017-05-28T00:23:06.457Z,1012.17
2017-05-28T00:24:07.894Z,1012.18
2017-05-28T00:25:09.337Z,1012.20
2017-05-28T00:26:10.801Z,1012.23
2017-05-28T00:27:12.238Z,1012.19
2017-05-28T00:28:13.653Z,1012.18
2017-05-28T00:29:15.083Z,1012.20
2017-05-28T00:30:16.524Z,1012.22
2017-05-28T00:31:17.954Z,1012.25
2017-05-28T00:32:19.376Z,1012.27
2017-05-28T00:33:20.821Z,1012.35
2017-05-28T00:34:22.252Z,1012.33
2017-05-28T00:35:23.671Z,1012.35
2017-05-28T00:36:25.087Z,1012.30
2017-05-28T00:37:26.511Z,1012.33
2017-05-28T00:38:27.976Z,1012.35
2017-05-28T00:39:29.414Z,1012.34
2017-05-28T00:40:30.832Z,1012.33
2017-05-28T00:41:32.255Z,1012.31
2017-05-28T00:42:33.693Z,1012.34
2017-05-28T00:43:35.108Z,1012.32
2017-05-28T00:44:36.531Z,1012.31
2017-05-28T00:45:37.963Z,1012.29
2017-05-28T00:46:39.396Z,1012.31
2017-05-28T00:47:40.848Z,1012.26
2017-05-28T00:48:42.290Z,1012.27
2017-05-28T00:49:43.716Z,1012.27
2017-05-28T00:50:45.159Z,1012.29
2017-05-28T00:51:46.605Z,1012.25
2017-05-28T00:52:48.040Z,1012.25
2017-05-28T00:53:49.465Z,1012.29
2017-05-28T00:54:50.909Z,1012.23
2017-05-28T00:55:52.349Z,1012.26
2017-05-28T00:56:53.775Z,1012.29
2017-05-28T00:57:55.234Z,1012.26
2017-05-28T00:58:56.652Z,1012.32
2017-05-28T00:59:58.123Z,1012.36
2017-05-28T01:00:59.565Z,1012.35
2017-05-28T01:02:01.014Z,1012.35
2017-05-28T01:03:02.440Z,1012.33
2017-05-28T01:04:03.898Z,1012.38
2017-05-28T01:05:05.324Z,1012.40
2017-05-28T01:06:06.750Z,1012.42
2017-05-28T01:07:08.197Z,1012.42
2017-05-28T01:08:09.633Z,1012.44
2017-05-28T01:09:11.041Z,1012.44
2017-05-28T01:10:12.480Z,1012.44
2017-05-28T01:11:13.947Z,1012.43
2017-05-28T01:12:15.388Z,1012.48
2017-05-28T01:13:16.812Z,1012.45
2017-05-28T01:14:18.250Z,1012.44
2017-05-28T01:15:19.683Z,1012.43
2017-05-28T01:16:21.104Z,1012.42
2017-05-28T01:17:22.541Z,1012.40
2017-05-28T01:18:23.963Z,1012.38
2017-05-28T01:19:25.395Z,1012.36
2017-05-28T01:20:26.829Z,1012.39
2017-05-28T01:21:28.267Z,1012.37
2017-05-28T01:22:29.712Z,1012.36
2017-05-28T01:23:31.137Z,1012.27
2017-05-28T01:24:32.552Z,1012.29
2017-05-28T01:25:33.972Z,1012.32
2017-05-28T01:26:35.396Z,1012.31
2017-05-28T01:27:36.856Z,1012.36
2017-05-28T01:28:38.296Z,1012.34
2017-05-28T01:29:39.745Z,1012.36
2017-05-28T01:30:41.179Z,1012.37
2017-05-28T01:31:42.615Z,1012.33
2017-05-28T01:32:44.030Z,1012.32
2017-05-28T01:33:45.470Z,1012.34
2017-05-28T01:34:46.892Z,1012.32
2017-05-28T01:35:48.328Z,1012.36
2017-05-28T01:36:49.751Z,1012.34
2017-05-28T01:37:51.187Z,1012.34
2017-05-28T01:38:52.628Z,1012.35
2017-05-28T01:39:54.083Z,1012.32
2017-05-28T01:40:55.532Z,1012.35
2017-05-28T01:41:56.963Z,1012.33
2017-05-28T01:42:58.487Z,1012.31
2017-05-28T01:43:59.946Z,1012.28
2017-05-28T01:45:01.418Z,1012.27
2017-05-28T01:46:02.880Z,1012.23
2017-05-28T01:47:04.317Z,1012.29
2017-05-28T01:48:05.748Z,1012.24
2017-05-28T01:49:07.192Z,1012.25
2017-05-28T01:50:08.635Z,1012.27
2017-05-28T01:51:10.077Z,1012.26
2017-05-28T01:52:11.519Z,1012.25
2017-05-28T01:53:12.972Z,1012.22
2017-05-28T01:54:14.416Z,1012.20
2017-05-28T01:55:15.833Z,1012.20
2017-05-28T01:56:17.288Z,1012.14
2017-05-28T01:57:18.710Z,1012.13
2017-05-28T01:58:20.148Z,1012.15
2017-05-28T01:59:21.613Z,1012.16
2017-05-28T02:00:23.075Z,1012.18
2017-05-28T02:01:24.485Z,1012.21
2017-05-28T02:02:25.954Z,1012.22
2017-05-28T02:03:27.391Z,1012.17
2017-05-28T02:04:28.817Z,1012.19
2017-05-28T02:05:30.244Z,1012.15
2017-05-28T02:06:31.684Z,1012.11
2017-05-28T02:07:33.115Z,1012.09
2017-05-28T02:08:34.598Z,1012.09
2017-05-28T02:09:36.048Z,1012.03
2017-05-28T02:10:37.526Z,1012.08
2017-05-28T02:11:38.917Z,1012.06
2017-05-28T02:12:40.421Z,1012.10
2017-05-28T02:13:41.849Z,1012.08
2017-05-28T02:14:43.314Z,1012.08
2017-05-28T02:15:44.766Z,1012.09
2017-05-28T02:16:46.193Z,1012.08
2017-05-28T02:17:47.679Z,1012.07
2017-05-28T02:18:49.122Z,1012.09
2017-05-28T02:19:50.591Z,1012.06
2017-05-28T02:20:52.019Z,1012.10
2017-05-28T02:21:53.442Z,1012.10
2017-05-28T02:22:54.880Z,1012.10
2017-05-28T02:23:56.359Z,1012.12
2017-05-28T02:24:57.786Z,1012.10
2017-05-28T02:25:59.255Z,1012.13
2017-05-28T02:27:00.681Z,1012.14
2017-05-28T02:28:02.154Z,1012.15
2017-05-28T02:29:03.603Z,1012.15
2017-05-28T02:30:05.022Z,1012.20
2017-05-28T02:31:06.510Z,1012.19
2017-05-28T02:32:07.897Z,1012.20
2017-05-28T02:33:09.369Z,1012.18
2017-05-28T02:34:10.803Z,1012.17
2017-05-28T02:35:12.231Z,1012.18
2017-05-28T02:36:13.639Z,1012.21
2017-05-28T02:37:15.057Z,1012.19
2017-05-28T02:38:16.497Z,1012.22
2017-05-28T02:39:17.942Z,1012.24
2017-05-28T02:40:19.391Z,1012.23
2017-05-28T02:41:20.857Z,1012.24
2017-05-28T02:42:22.288Z,1012.26
2017-05-28T02:43:23.736Z,1012.27
2017-05-28T02:44:25.178Z,1012.23
2017-05-28T02:45:26.619Z,1012.26
2017-05-28T02:46:28.077Z,1012.27
2017-05-28T02:47:29.514Z,1012.31
2017-05-28T02:48:30.974Z,1012.32
2017-05-28T02:49:32.388Z,1012.36
2017-05-28T02:50:33.822Z,1012.36
2017-05-28T02:51:35.315Z,1012.34
2017-05-28T02:52:36.782Z,1012.36
2017-05-28T02:53:38.266Z,1012.34
2017-05-28T02:54:39.696Z,1012.36
2017-05-28T02:55:41.143Z,1012.38
2017-05-28T02:56:42.584Z,1012.42
2017-05-28T02:57:44.008Z,1012.42
2017-05-28T02:58:45.459Z,1012.42
2017-05-28T02:59:46.915Z,1012.44
2017-05-28T03:00:48.323Z,1012.39
2017-05-28T03:01:49.746Z,1012.36
2017-05-28T03:02:51.201Z,1012.34
2017-05-28T03:03:52.640Z,1012.34
2017-05-28T03:04:54.063Z,1012.33
2017-05-28T03:05:55.502Z,1012.39
2017-05-28T03:06:56.927Z,1012.39
2017-05-28T03:07:58.349Z,1012.38
2017-05-28T03:08:59.783Z,1012.41
2017-05-28T03:10:01.215Z,1012.43
2017-05-28T03:11:02.640Z,1012.42
2017-05-28T03:12:04.063Z,1012.42
2017-05-28T03:13:05.513Z,1012.43
2017-05-28T03:14:06.979Z,1012.42
2017-05-28T03:15:08.412Z,1012.42
2017-05-28T03:16:09.841Z,1012.44
2017-05-28T03:17:11.320Z,1012.47
2017-05-28T03:18:12.742Z,1012.49
2017-05-28T03:19:14.216Z,1012.50
2017-05-28T03:20:15.646Z,1012.53
2017-05-28T03:21:17.080Z,1012.56
2017-05-28T03:22:18.503Z,1012.58
2017-05-28T03:23:19.980Z,1012.62
2017-05-28T03:24:21.445Z,1012.60
2017-05-28T03:25:22.877Z,1012.63
2017-05-28T03:26:24.290Z,1012.59
2017-05-28T03:27:25.733Z,1012.58
2017-05-28T03:28:27.171Z,1012.59
2017-05-28T03:29:28.619Z,1012.58
2017-05-28T03:30:30.032Z,1012.62
2017-05-28T03:31:31.507Z,1012.64
2017-05-28T03:32:32.956Z,1012.66
2017-05-28T03:33:34.374Z,1012.72
2017-05-28T03:34:35.866Z,1012.65
2017-05-28T03:35:37.286Z,1012.66
2017-05-28T03:36:38.721Z,1012.70
2017-05-28T03:37:40.166Z,1012.69
2017-05-28T03:38:41.592Z,1012.69
2017-05-28T03:39:43.068Z,1012.74
2017-05-28T03:40:44.495Z,1012.80
2017-05-28T03:41:45.973Z,1012.80
2017-05-28T03:42:47.390Z,1012.88
2017-05-28T03:43:48.813Z,1012.91
2017-05-28T03:44:50.268Z,1012.89
2017-05-28T03:45:51.749Z,1012.87
2017-05-28T03:46:53.215Z,1012.88
2017-05-28T03:47:54.668Z,1012.90
2017-05-28T03:48:56.102Z,1012.91
2017-05-28T03:49:57.524Z,1012.99
2017-05-28T03:50:58.966Z,1013.04
2017-05-28T03:52:00.435Z,1013.05
2017-05-28T03:53:01.881Z,1013.12
2017-05-28T03:54:03.328Z,1013.11
2017-05-28T03:55:04.787Z,1013.10
2017-05-28T03:56:06.245Z,1013.10
2017-05-28T03:57:07.684Z,1013.08
2017-05-28T03:58:09.131Z,1013.11
2017-05-28T03:59:10.595Z,1013.10
2017-05-28T04:00:12.055Z,1013.13
2017-05-28T04:01:13.503Z,1013.17
2017-05-28T04:02:14.921Z,1013.16
2017-05-28T04:03:16.360Z,1013.21
2017-05-28T04:04:17.860Z,1013.19
2017-05-28T04:05:19.291Z,1013.23
2017-05-28T04:06:20.731Z,1013.21
2017-05-28T04:07:22.157Z,1013.24
2017-05-28T04:08:23.591Z,1013.25
2017-05-28T04:09:25.024Z,1013.25
2017-05-28T04:10:26.477Z,1013.27
2017-05-28T04:11:27.898Z,1013.23
2017-05-28T04:12:29.317Z,1013.25
2017-05-28T04:13:30.769Z,1013.27
2017-05-28T04:14:32.212Z,1013.22
2017-05-28T04:15:33.633Z,1013.26
2017-05-28T04:16:35.075Z,1013.28
2017-05-28T04:17:36.499Z,1013.33
2017-05-28T04:18:37.972Z,1013.38
2017-05-28T04:19:39.393Z,1013.37
2017-05-28T04:20:40.848Z,1013.41
2017-05-28T04:21:42.276Z,1013.45
2017-05-28T04:22:43.699Z,1013.43
2017-05-28T04:23:45.129Z,1013.44
2017-05-28T04:24:46.579Z,1013.39
2017-05-28T04:25:48.010Z,1013.41
2017-05-28T04:26:49.430Z,1013.38
2017-05-28T04:27:50.882Z,1013.35
2017-05-28T04:28:52.304Z,1013.34
2017-05-28T04:29:53.757Z,1013.34
2017-05-28T04:30:55.202Z,1013.35
2017-05-28T04:31:56.674Z,1013.34
2017-05-28T04:32:58.166Z,1013.35
2017-05-28T04:33:59.608Z,1013.29
2017-05-28T04:35:01.046Z,1013.27
2017-05-28T04:36:02.473Z,1013.21
2017-05-28T04:37:03.916Z,1013.13
2017-05-28T04:38:05.360Z,1013.09
2017-05-28T04:39:06.837Z,1013.08
2017-05-28T04:40:08.288Z,1013.06
2017-05-28T04:41:09.726Z,1013.05
2017-05-28T04:42:11.171Z,1013.08
2017-05-28T04:43:12.605Z,1013.07
2017-05-28T04:44:14.087Z,1013.04
2017-05-28T04:45:15.575Z,1013.02
2017-05-28T04:46:17.077Z,1012.97
2017-05-28T04:47:18.521Z,1012.92
2017-05-28T04:48:19.988Z,1012.87
2017-05-28T04:49:21.452Z,1012.84
2017-05-28T04:50:22.900Z,1012.87
2017-05-28T04:51:24.337Z,1012.86
2017-05-28T04:52:25.775Z,1012.87
2017-05-28T04:53:27.261Z,1012.88
2017-05-28T04:54:28.709Z,1012.88
2017-05-28T04:55:30.174Z,1012.93
2017-05-28T04:56:31.634Z,1012.93
2017-05-28T04:57:33.170Z,1012.97
2017-05-28T04:58:34.597Z,1012.97
2017-05-28T04:59:36.020Z,1013.01
2017-05-28T05:00:37.451Z,1013.06
2017-05-28T05:01:38.896Z,1013.10
2017-05-28T05:02:40.317Z,1013.14
2017-05-28T05:03:41.742Z,1013.15
2017-05-28T05:04:43.261Z,1013.17
2017-05-28T05:05:44.718Z,1013.19
2017-05-28T05:06:46.178Z,1013.23
2017-05-28T05:07:47.636Z,1013.27
2017-05-28T05:08:49.098Z,1013.30
2017-05-28T05:09:50.550Z,1013.34
2017-05-28T05:10:51.966Z,1013.37
2017-05-28T05:11:53.440Z,1013.39
2017-05-28T05:12:54.863Z,1013.35
2017-05-28T05:13:56.279Z,1013.35
2017-05-28T05:14:57.739Z,1013.38
2017-05-28T05:15:59.173Z,1013.33
2017-05-28T05:17:00.608Z,1013.35
2017-05-28T05:18:02.050Z,1013.33
2017-05-28T05:19:03.499Z,1013.36
2017-05-28T05:20:04.930Z,1013.35
2017-05-28T05:21:06.368Z,1013.41
2017-05-28T05:22:07.810Z,1013.43
2017-05-28T05:23:09.276Z,1013.48
2017-05-28T05:24:10.720Z,1013.48
2017-05-28T05:25:12.181Z,1013.52
2017-05-28T05:26:13.658Z,1013.50
2017-05-28T05:27:15.159Z,1013.53
2017-05-28T05:28:16.610Z,1013.57
2017-05-28T05:29:18.127Z,1013.61
2017-05-28T05:30:19.550Z,1013.64
2017-05-28T05:31:20.995Z,1013.70
2017-05-28T05:32:22.468Z,1013.75
2017-05-28T05:33:23.951Z,1013.79
2017-05-28T05:34:25.425Z,1013.76
2017-05-28T05:35:26.880Z,1013.73
2017-05-28T05:36:28.349Z,1013.74
2017-05-28T05:37:29.834Z,1013.70
2017-05-28T05:38:31.245Z,1013.67
2017-05-28T05:39:32.763Z,1013.62
2017-05-28T05:40:34.343Z,1013.54
2017-05-28T05:41:35.941Z,1013.57
2017-05-28T05:42:37.470Z,1013.56
2017-05-28T05:43:38.947Z,1013.55
2017-05-28T05:44:40.652Z,1013.56
2017-05-28T05:45:42.127Z,1013.61
2017-05-28T05:46:43.628Z,1013.60
2017-05-28T05:47:45.145Z,1013.62
2017-05-28T05:48:46.739Z,1013.67
2017-05-28T05:49:48.260Z,1013.78
2017-05-28T05:50:49.749Z,1013.88
2017-05-28T05:51:51.289Z,1013.90
2017-05-28T05:52:52.913Z,1013.92
2017-05-28T05:53:54.478Z,1013.96
2017-05-28T05:54:55.920Z,1013.98
2017-05-28T05:55:57.361Z,1014.01
2017-05-28T05:56:58.949Z,1014.05
2017-05-28T05:58:00.396Z,1014.06
2017-05-28T05:59:02.001Z,1014.08
2017-05-28T06:00:03.531Z,1014.07
2017-05-28T06:01:05.597Z,1014.09
2017-05-28T06:02:07.617Z,1014.03
2017-05-28T06:03:09.031Z,1013.92
2017-05-28T06:04:12.364Z,1013.83
2017-05-28T06:05:13.813Z,1013.74
2017-05-28T06:06:15.246Z,1013.69
2017-05-28T06:07:16.721Z,1013.65
2017-05-28T06:08:19.009Z,1013.66
2017-05-28T06:09:21.387Z,1013.60
2017-05-28T06:10:23.588Z,1013.55
2017-05-28T06:11:28.342Z,1013.45
2017-05-28T06:12:32.859Z,1013.39
2017-05-28T06:13:37.831Z,1013.44
2017-05-28T06:14:41.349Z,1013.48
2017-05-28T06:15:45.556Z,1013.56
2017-05-28T06:16:48.999Z,1013.58
2017-05-28T06:17:50.886Z,1013.60
2017-05-28T06:18:52.492Z,1013.58
2017-05-28T06:19:55.658Z,1013.45
2017-05-28T06:20:57.221Z,1013.38
2017-05-28T06:21:59.727Z,1013.27
2017-05-28T06:23:01.273Z,1013.26
2017-05-28T06:24:02.851Z,1013.34
2017-05-28T06:25:04.487Z,1013.39
2017-05-28T06:26:07.566Z,1013.39
2017-05-28T06:27:09.106Z,1013.36
2017-05-28T06:28:10.614Z,1013.39
2017-05-28T06:29:14.826Z,1013.36
2017-05-28T06:30:16.323Z,1013.39
2017-05-28T06:31:20.344Z,1013.41
2017-05-28T06:32:24.094Z,1013.45
2017-05-28T06:33:27.551Z,1013.49
2017-05-28T06:34:30.155Z,1013.55
2017-05-28T06:35:32.896Z,1013.61
2017-05-28T06:36:34.291Z,1013.67
2017-05-28T06:37:35.757Z,1013.65
2017-05-28T06:38:37.427Z,1013.67
2017-05-28T06:39:38.964Z,1013.62
2017-05-28T06:40:43.202Z,1013.58
2017-05-28T06:41:44.620Z,1013.56
2017-05-28T06:42:48.801Z,1013.52
2017-05-28T06:43:50.246Z,1013.53
2017-05-28T06:44:51.701Z,1013.47
2017-05-28T06:45:53.171Z,1013.46
2017-05-28T06:46:57.124Z,1013.45
2017-05-28T06:48:01.431Z,1013.44
2017-05-28T06:49:05.007Z,1013.50
2017-05-28T06:50:07.549Z,1013.47
2017-05-28T06:51:09.330Z,1013.42
2017-05-28T06:52:10.830Z,1013.43
2017-05-28T06:53:14.204Z,1013.45
2017-05-28T06:54:18.179Z,1013.42
2017-05-28T06:55:22.377Z,1013.45
2017-05-28T06:56:24.936Z,1013.52
2017-05-28T06:57:26.424Z,1013.57
2017-05-28T06:58:27.855Z,1013.55
2017-05-28T06:59:31.798Z,1013.54
2017-05-28T07:00:35.055Z,1013.58
2017-05-28T07:01:36.476Z,1013.57
2017-05-28T07:02:41.501Z,1013.55
2017-05-28T07:03:42.905Z,1013.54
2017-05-28T07:04:46.747Z,1013.51
2017-05-28T07:05:50.456Z,1013.56
2017-05-28T07:06:51.933Z,1013.52
2017-05-28T07:07:53.435Z,1013.50
2017-05-28T07:08:57.217Z,1013.53
2017-05-28T07:09:59.684Z,1013.55
2017-05-28T07:11:02.629Z,1013.53
2017-05-28T07:12:04.136Z,1013.57
2017-05-28T07:13:05.747Z,1013.56
2017-05-28T07:14:07.206Z,1013.53
2017-05-28T07:15:08.640Z,1013.52
2017-05-28T07:16:10.077Z,1013.54
2017-05-28T07:17:11.786Z,1013.53
2017-05-28T07:18:13.261Z,1013.51
2017-05-28T07:19:17.277Z,1013.49
2017-05-28T07:20:20.798Z,1013.50
2017-05-28T07:21:23.077Z,1013.54
2017-05-28T07:22:25.189Z,1013.50
2017-05-28T07:23:28.971Z,1013.50
2017-05-28T07:24:30.878Z,1013.48
2017-05-28T07:25:32.319Z,1013.46
2017-05-28T07:26:33.748Z,1013.46
2017-05-28T07:27:35.168Z,1013.44
2017-05-28T07:28:39.293Z,1013.44
2017-05-28T07:29:40.698Z,1013.37
2017-05-28T07:30:43.967Z,1013.34
2017-05-28T07:31:45.451Z,1013.33
2017-05-28T07:32:49.913Z,1013.31
2017-05-28T07:33:51.342Z,1013.27
2017-05-28T07:34:53.407Z,1013.27
2017-05-28T07:35:54.840Z,1013.22
2017-05-28T07:36:58.542Z,1013.25
2017-05-28T07:38:00.382Z,1013.22
2017-05-28T07:39:02.747Z,1013.17
2017-05-28T07:40:04.170Z,1013.21
2017-05-28T07:41:05.609Z,1013.21
2017-05-28T07:42:07.774Z,1013.27
2017-05-28T07:43:09.528Z,1013.27
2017-05-28T07:44:10.972Z,1013.27
2017-05-28T07:45:12.418Z,1013.30
2017-05-28T07:46:13.851Z,1013.34
2017-05-28T07:47:15.286Z,1013.37
2017-05-28T07:48:19.385Z,1013.38
2017-05-28T07:49:23.488Z,1013.41
2017-05-28T07:50:25.765Z,1013.45
2017-05-28T07:51:28.525Z,1013.47
2017-05-28T07:52:29.938Z,1013.43
2017-05-28T07:53:33.990Z,1013.45
2017-05-28T07:54:35.356Z,1013.45
2017-05-28T07:55:36.803Z,1013.43
2017-05-28T07:56:38.232Z,1013.45
2017-05-28T07:57:39.653Z,1013.50
2017-05-28T07:58:41.075Z,1013.55
2017-05-28T07:59:43.203Z,1013.54
2017-05-28T08:00:44.622Z,1013.54
2017-05-28T08:01:46.154Z,1013.54
2017-05-28T08:02:47.574Z,1013.55
2017-05-28T08:03:49.498Z,1013.51
2017-05-28T08:04:51.823Z,1013.55
2017-05-28T08:05:53.254Z,1013.53
2017-05-28T08:06:57.576Z,1013.55
2017-05-28T08:07:58.959Z,1013.61
2017-05-28T08:09:00.443Z,1013.62
2017-05-28T08:10:03.599Z,1013.69
2017-05-28T08:11:08.088Z,1013.69
2017-05-28T08:12:09.480Z,1013.71
2017-05-28T08:13:13.311Z,1013.72
2017-05-28T08:14:14.753Z,1013.78
2017-05-28T08:15:16.210Z,1013.82
2017-05-28T08:16:17.644Z,1013.84
2017-05-28T08:17:19.081Z,1013.90
2017-05-28T08:18:20.506Z,1013.92
2017-05-28T08:19:21.986Z,1013.89
2017-05-28T08:20:23.406Z,1013.93
2017-05-28T08:21:25.410Z,1013.94
2017-05-28T08:22:26.828Z,1013.94
2017-05-28T08:23:28.278Z,1013.97
2017-05-28T08:24:29.675Z,1014.06
2017-05-28T08:25:31.156Z,1014.20
2017-05-28T08:26:32.602Z,1014.30
2017-05-28T08:27:34.027Z,1014.40
2017-05-28T08:28:35.454Z,1014.46
2017-05-28T08:29:36.880Z,1014.59
2017-05-28T08:30:38.333Z,1014.63
2017-05-28T08:31:39.796Z,1014.66
2017-05-28T08:32:41.434Z,1014.72
2017-05-28T08:33:42.850Z,1014.78
2017-05-28T08:34:44.276Z,1014.80
2017-05-28T08:35:45.709Z,1014.82
2017-05-28T08:36:47.130Z,1014.75
2017-05-28T08:37:48.557Z,1014.73
2017-05-28T08:38:49.984Z,1014.68
2017-05-28T08:39:51.406Z,1014.75
2017-05-28T08:40:52.831Z,1014.90
2017-05-28T08:41:54.256Z,1014.93
2017-05-28T08:42:55.677Z,1015.00
2017-05-28T08:43:57.096Z,1014.93
2017-05-28T08:44:58.516Z,1014.73
2017-05-28T08:45:59.933Z,1014.37
2017-05-28T08:47:01.367Z,1013.87
2017-05-28T08:48:02.799Z,1013.72
2017-05-28T08:49:04.217Z,1013.64
2017-05-28T08:50:05.632Z,1013.68
2017-05-28T08:51:07.109Z,1013.71
2017-05-28T08:52:08.523Z,1013.94
2017-05-28T08:53:09.946Z,1014.12
2017-05-28T08:54:11.377Z,1014.20
2017-05-28T08:55:12.794Z,1014.22
2017-05-28T08:56:14.219Z,1014.26
2017-05-28T08:57:15.645Z,1014.25
2017-05-28T08:58:17.063Z,1014.21
2017-05-28T08:59:18.484Z,1014.21
2017-05-28T09:00:19.911Z,1014.24
2017-05-28T09:01:21.330Z,1014.25
2017-05-28T09:02:22.753Z,1014.37
2017-05-28T09:03:24.165Z,1014.42
2017-05-28T09:04:25.597Z,1014.49
2017-05-28T09:05:27.024Z,1014.53
2017-05-28T09:06:28.450Z,1014.52
2017-05-28T09:07:29.871Z,1014.48
2017-05-28T09:08:31.291Z,1014.43
2017-05-28T09:09:32.703Z,1014.35
2017-05-28T09:10:34.135Z,1014.26
2017-05-28T09:11:35.556Z,1014.24
2017-05-28T09:12:36.975Z,1014.20
2017-05-28T09:13:38.395Z,1014.23
2017-05-28T09:14:39.816Z,1014.27
2017-05-28T09:15:41.232Z,1014.37
2017-05-28T09:16:43.906Z,1014.34
2017-05-28T09:17:45.331Z,1014.35
2017-05-28T09:18:46.754Z,1014.34
2017-05-28T09:19:48.178Z,1014.36
2017-05-28T09:20:49.601Z,1014.29
2017-05-28T09:21:51.240Z,1014.22
2017-05-28T09:22:53.297Z,1014.26
2017-05-28T09:23:54.712Z,1014.27
2017-05-28T09:24:56.149Z,1014.30
2017-05-28T09:25:58.193Z,1014.29
2017-05-28T09:26:59.612Z,1014.27
2017-05-28T09:28:01.033Z,1014.32
2017-05-28T09:29:02.488Z,1014.29
2017-05-28T09:30:03.923Z,1014.29
2017-05-28T09:31:05.502Z,1014.27
2017-05-28T09:32:06.979Z,1014.26
2017-05-28T09:33:08.489Z,1014.26
2017-05-28T09:34:10.061Z,1014.24
2017-05-28T09:35:11.536Z,1014.20
2017-05-28T09:36:12.961Z,1014.16
2017-05-28T09:37:14.389Z,1014.12
2017-05-28T09:38:15.809Z,1014.06
2017-05-28T09:39:17.284Z,1014.07
2017-05-28T09:40:21.945Z,1014.02
2017-05-28T09:41:23.538Z,1013.97
2017-05-28T09:42:25.459Z,1014.02
2017-05-28T09:43:26.828Z,1014.02
2017-05-28T09:44:28.886Z,1013.96
2017-05-28T09:45:30.707Z,1013.96
2017-05-28T09:46:33.777Z,1013.94
2017-05-28T09:47:35.215Z,1013.89
2017-05-28T09:48:36.895Z,1013.88
2017-05-28T09:49:38.428Z,1013.84
2017-05-28T09:50:39.932Z,1013.82
2017-05-28T09:51:42.139Z,1013.88
2017-05-28T09:52:43.568Z,1013.88
2017-05-28T09:53:44.993Z,1013.88
2017-05-28T09:54:46.448Z,1013.89
2017-05-28T09:55:47.862Z,1013.90
2017-05-28T09:56:49.288Z,1013.90
2017-05-28T09:57:50.709Z,1013.92
2017-05-28T09:58:52.129Z,1013.94
2017-05-28T09:59:53.554Z,1013.92
2017-05-28T10:00:54.973Z,1013.92
2017-05-28T10:01:56.398Z,1013.89
2017-05-28T10:02:57.820Z,1013.85
2017-05-28T10:03:59.247Z,1013.83
2017-05-28T10:05:01.211Z,1013.77
2017-05-28T10:06:02.683Z,1013.76
2017-05-28T10:07:04.142Z,1013.72
2017-05-28T10:08:05.572Z,1013.72
2017-05-28T10:09:07.011Z,1013.69
2017-05-28T10:10:08.459Z,1013.69
2017-05-28T10:11:09.887Z,1013.65
2017-05-28T10:12:11.316Z,1013.57
2017-05-28T10:13:12.774Z,1013.52
2017-05-28T10:14:17.651Z,1013.48
2017-05-28T10:15:22.093Z,1013.46
2017-05-28T10:16:23.492Z,1013.44
2017-05-28T10:17:25.005Z,1013.44
2017-05-28T10:18:26.427Z,1013.47
2017-05-28T10:19:27.853Z,1013.41
2017-05-28T10:20:29.277Z,1013.41
2017-05-28T10:21:30.706Z,1013.41
2017-05-28T10:22:32.161Z,1013.39
2017-05-28T10:23:33.594Z,1013.44
2017-05-28T10:24:35.021Z,1013.50
2017-05-28T10:25:38.262Z,1013.53
2017-05-28T10:26:39.685Z,1013.54
2017-05-28T10:27:41.117Z,1013.59
2017-05-28T10:28:42.539Z,1013.63
2017-05-28T10:29:44.029Z,1013.67
2017-05-28T10:30:46.167Z,1013.63
2017-05-28T10:31:48.683Z,1013.67
2017-05-28T10:32:50.103Z,1013.67
2017-05-28T10:33:51.537Z,1013.69
2017-05-28T10:34:53.517Z,1013.69
2017-05-28T10:35:55.236Z,1013.66
2017-05-28T10:36:56.718Z,1013.77
2017-05-28T10:37:58.160Z,1013.81
2017-05-28T10:38:59.650Z,1013.81
2017-05-28T10:40:01.158Z,1013.76
2017-05-28T10:41:02.579Z,1013.83
2017-05-28T10:42:04.018Z,1013.76
2017-05-28T10:43:05.481Z,1013.80
2017-05-28T10:44:06.904Z,1013.81
2017-05-28T10:45:08.430Z,1013.80
2017-05-28T10:46:09.844Z,1013.81
2017-05-28T10:47:11.287Z,1013.78
2017-05-28T10:48:12.700Z,1013.81
2017-05-28T10:49:14.122Z,1013.84
2017-05-28T10:50:15.715Z,1013.84
2017-05-28T10:51:17.178Z,1013.81
2017-05-28T10:52:18.607Z,1013.75
2017-05-28T10:53:20.051Z,1013.69
2017-05-28T10:54:21.467Z,1013.67
2017-05-28T10:55:22.891Z,1013.65
2017-05-28T10:56:24.334Z,1013.55
2017-05-28T10:57:25.771Z,1013.54
2017-05-28T10:58:27.203Z,1013.53
2017-05-28T10:59:28.635Z,1013.55
2017-05-28T11:00:32.615Z,1013.54
2017-05-28T11:01:34.054Z,1013.56
2017-05-28T11:02:35.484Z,1013.59
2017-05-28T11:03:36.918Z,1013.62
2017-05-28T11:04:38.394Z,1013.65
2017-05-28T11:05:39.822Z,1013.65
2017-05-28T11:06:41.258Z,1013.68
2017-05-28T11:07:42.700Z,1013.74
2017-05-28T11:08:44.123Z,1013.76
2017-05-28T11:09:45.634Z,1013.69
2017-05-28T11:10:47.680Z,1013.73
2017-05-28T11:11:49.353Z,1013.68
2017-05-28T11:12:50.790Z,1013.68
2017-05-28T11:13:52.210Z,1013.60
2017-05-28T11:14:53.644Z,1013.61
2017-05-28T11:15:55.069Z,1013.57
2017-05-28T11:16:56.500Z,1013.53
2017-05-28T11:17:57.925Z,1013.49
2017-05-28T11:18:59.374Z,1013.52
2017-05-28T11:20:07.004Z,1013.51
2017-05-28T11:21:08.442Z,1013.55
2017-05-28T11:22:09.874Z,1013.51
2017-05-28T11:23:11.324Z,1013.47
2017-05-28T11:24:12.777Z,1013.44
2017-05-28T11:25:14.202Z,1013.43
2017-05-28T11:26:15.631Z,1013.38
2017-05-28T11:27:17.087Z,1013.37
2017-05-28T11:28:18.523Z,1013.37
2017-05-28T11:29:19.958Z,1013.36
2017-05-28T11:30:21.381Z,1013.35
2017-05-28T11:31:22.799Z,1013.36
2017-05-28T11:32:24.228Z,1013.36
2017-05-28T11:33:25.668Z,1013.35
2017-05-28T11:34:27.134Z,1013.36
2017-05-28T11:35:28.563Z,1013.35
2017-05-28T11:36:30.009Z,1013.39
2017-05-28T11:37:31.442Z,1013.37
2017-05-28T11:38:33.490Z,1013.37
2017-05-28T11:39:34.919Z,1013.33
2017-05-28T11:40:36.352Z,1013.28
2017-05-28T11:41:37.795Z,1013.27
2017-05-28T11:42:39.896Z,1013.30
2017-05-28T11:43:41.315Z,1013.25
2017-05-28T11:44:42.739Z,1013.26
2017-05-28T11:45:44.166Z,1013.24
2017-05-28T11:46:45.603Z,1013.27
2017-05-28T11:47:49.199Z,1013.23
2017-05-28T11:48:49.809Z,1013.24
2017-05-28T11:49:51.247Z,1013.21
2017-05-28T11:50:52.661Z,1013.22
2017-05-28T11:51:54.107Z,1013.25
2017-05-28T11:52:55.539Z,1013.22
2017-05-28T11:53:56.966Z,1013.23
2017-05-28T11:54:58.395Z,1013.23
2017-05-28T11:55:59.813Z,1013.25
2017-05-28T11:57:01.237Z,1013.26
2017-05-28T11:58:02.676Z,1013.23
2017-05-28T11:59:04.102Z,1013.26
2017-05-28T12:00:05.531Z,1013.28
2017-05-28T12:01:06.961Z,1013.23
2017-05-28T12:02:09.093Z,1013.22
2017-05-28T12:03:10.529Z,1013.18
2017-05-28T12:04:11.947Z,1013.15
2017-05-28T12:05:13.424Z,1013.13
2017-05-28T12:06:14.844Z,1013.07
2017-05-28T12:07:17.054Z,1013.07
2017-05-28T12:08:18.476Z,1013.07
2017-05-28T12:09:19.900Z,1013.09
2017-05-28T12:10:21.797Z,1013.03
2017-05-28T12:11:23.982Z,1013.00
2017-05-28T12:12:25.404Z,1012.95
2017-05-28T12:13:27.302Z,1012.95
2017-05-28T12:14:29.102Z,1012.93
2017-05-28T12:15:30.847Z,1012.96
2017-05-28T12:16:32.584Z,1012.93
2017-05-28T12:17:36.060Z,1012.94
2017-05-28T12:18:42.092Z,1012.91
2017-05-28T12:19:43.909Z,1012.92
2017-05-28T12:20:50.512Z,1012.92
2017-05-28T12:21:54.333Z,1012.93
2017-05-28T12:22:56.098Z,1012.90
2017-05-28T12:23:57.917Z,1012.90
2017-05-28T12:25:00.738Z,1012.91
2017-05-28T12:26:02.586Z,1012.90